KHYR

Sawyer County Airport

Hayward, Wisconsin, USA
METAR KHYR 182153Z AUTO 04009KT 10SM CLR 25/13 A3003 RMK AO2 SLP164 T02500128
Observed Flight Rules
Jun-18 @ 21:53 UTC (49 minutes ago) Visual Flight Rules
Wind Visibility Clouds
40° at 9 knots 10 miles
  • Clear skies
Temperatures Readings
Current 25°C / 77°F
Dewpoint 13°C / 55°F
Humidity 47%
Altimeter 30.03" Hg
Pressure 1016.4 hPa
Elevation 370
METAR KHYR 182153Z AUTO 04009KT 10SM CLR 25/13 A3003 RMK AO2 SLP164 T02500128
Observed Flight Rules
Jun-18 @ 21:53 UTC
(49 minutes ago)
VFR
Wind Visibility
40° at 9 knots 10 miles
Clouds
  • Clear skies
Temperature Dewpoint
25°C / 77°F 13°C / 55°F
Humidity Altimeter Pressure
47% 30.03" Hg 1016.4 hPa